首页
METAR-TAF:

METAR-TAF

机场 :

布拉格, 捷克共和国

布拉格瓦茨拉夫·哈維爾國際機場

纬度: 50-06N, 经度: 014-15E, 海拔: 365米

当前天气观测

该预报发布于20分钟前的22:00 UTC
风速5节,风向
温度 10°C
湿度 87%
气压 1013 hPa
能见度10公里或以上
1500米以下无云,无积雨云

METAR: LKPR 252200Z 19005KT CAVOK 10/08 Q1013 NOSIG

时间: 00:20 (22:20 UTC)

预报

该预报发布于5小时和20分钟前的17:00 UTC
预报有效从25日的 18点(UTC)到 27日的 00点(UTC)
风速10节,风向西转西南
能见度10公里或以上
1500米以下无云,无积雨云
短暂存在
从 25日的 18点(UTC)到 25日的 20点(UTC)
风速14节,风向西,有时为24节阵风
几率 30% :
短暂存在
从 25日的 18点(UTC)到 25日的 20点(UTC)
散云层高于4000英尺, 塔状积云.
短暂存在
从 25日的 20点(UTC)到 26日的 00点(UTC)
风速10节,风向北转西北
短暂存在
从 25日的 23点(UTC)到 26日的 07点(UTC)
多云层高于3000英尺
小雨
成为
从 26日的 05点(UTC)到 26日的 07点(UTC)
风速16节,风向西
短暂存在
从 26日的 07点(UTC)到 26日的 17点(UTC)
风速24节,风向西,有时为36节阵风
几率 40% :
短暂存在
从 26日的 13点(UTC)到 26日的 18点(UTC)
能見度: 8000
散云层高于4000英尺, 塔状积云.
小阵雨

TAF: LKPR 251700Z 2518/2700 25010KT CAVOK TEMPO 2518/2520 27014G24KT PROB30 TEMPO 2518/2520 SCT040TCU TEMPO 2520/2600 33010KT TEMPO 2523/2607 -RA BKN030 BECMG 2605/2607 27016KT TEMPO 2607/2617 28024G36KT PROB40 TEMPO 2613/2618 8000 -SHRA SCT040TCU

超过4000个机场的气象观测和天气预报(METAR&TAF报告)。

可查询的气象台以黄色和红色小点在地图上表示。

将鼠标移到小点上方,可查看气象台名称。

然后点击查看天气观测和预报。

如需切换地图:点击带黑十字的绿色按钮放大地图;点击带横线的绿色按钮缩小地图;或者点击绿色箭头查看邻近地区的地图。


METAR-TAF: